Bakersville, North Carolina
Current Conditions -  °F | °C
As of 4:15 PM on Thursday 20 Nov 2014 (Local Time) from K0A9 Reporting Station
Few Clouds Few Clouds  
Wind Chill: 44°   Ceiling: Unl
Heat Index: 46°   Visibility: 10mi
Dew Point: 25°   Wind: 6mph
Humidity: 43%   Direction: 250°WSW
Pressure: 30.08"   Gusts: NA
Location:  36.02°N, 82.16°W
Report Text: K0A9 202115Z AUTO 25005KT 10SM FEW050 08/M04 A3008 RMK
Loading
Personal Weather Stations






























Interactive Weather Map New forecast layout! Learn more

10-Day Weather Forecast

Advertisements
Track Severe Weather on mobile